Ocean Eagle — V7VV2 — position and weather

sailwx.info

Track history (hours):
 
Tides and Currents Weather Stations Pressure Air Temp Water Temp Dewpoint Dewpoint Depression Visibility Wind Speed Wind Dir Waves Ship Positions

Ocean Eagle

Last reported at 2017-Dec-11 02:16 UTC. Time now 2017-Dec-17 00:50 UTC.
Position N 36°49' W 075°47'.

Length 225 m; draft 12 m.

Type: Cargo ship. MMSI: 538004221.

Date/timePositionNaut miles runAvg speedWind from/ knotsBaromVisibWave heightAir tempDewpointWater temp
2017-Dec-11 02:16N 36°49' W 075°47'4 9.7
2017-Dec-11 01:54N 36°51' W 075°50'4 9.4
2017-Dec-11 01:30N 36°53' W 075°54'5 9.4
2017-Dec-11 01:00N 36°56' W 075°59'510.4
2017-Dec-11 00:30N 36°58' W 076°05'711.6
2017-Dec-10 23:56N 36°60' W 076°13'511.4
2017-Dec-10 23:30N 36°59' W 076°19'6 9.5
2017-Dec-10 22:53N 36°54' W 076°20'3 7.4
2017-Dec-10 22:31N 36°51' W 076°18'2 4.4
2017-Dec-10 22:01N 36°49' W 076°17'1 2.0
2017-Dec-10 21:29N 36°48' W 076°17'0 0.0
2017-Dec-10 20:59N 36°48' W 076°17'0 0.0
2017-Dec-10 20:29N 36°48' W 076°17'0 0.0
2017-Dec-10 19:59N 36°48' W 076°17'0 0.0
2017-Dec-10 19:29N 36°48' W 076°17'0 0.0
2017-Dec-10 18:59N 36°48' W 076°17'0 0.0
2017-Dec-10 18:29N 36°48' W 076°17'0 0.0
2017-Dec-10 17:59N 36°48' W 076°17'0 0.0
2017-Dec-10 17:29N 36°48' W 076°17'0 0.0
2017-Dec-10 16:59N 36°48' W 076°17'0 0.0
2017-Dec-10 16:29N 36°48' W 076°17'0 0.0
2017-Dec-10 15:59N 36°48' W 076°17'0 0.0
2017-Dec-10 15:29N 36°48' W 076°17'0 0.0
2017-Dec-10 14:59N 36°48' W 076°17'0 0.0
2017-Dec-10 14:29N 36°48' W 076°17'0 0.0
2017-Dec-10 13:59N 36°48' W 076°17'0 0.0
2017-Dec-10 13:29N 36°48' W 076°17'0 0.0
2017-Dec-10 12:59N 36°48' W 076°17'0 0.0
2017-Dec-10 12:29N 36°48' W 076°17'0 0.0
2017-Dec-10 11:59N 36°48' W 076°17'0 0.0
2017-Dec-10 11:29N 36°48' W 076°17'0 0.0
2017-Dec-10 10:59N 36°48' W 076°17'0 0.0
2017-Dec-10 10:29N 36°48' W 076°17'0 0.0
2017-Dec-10 09:59N 36°48' W 076°17'0 0.0
2017-Dec-10 09:29N 36°48' W 076°17'0 0.0
2017-Dec-10 08:59N 36°48' W 076°17'0 0.0
2017-Dec-10 08:29N 36°48' W 076°17'0 0.0
2017-Dec-10 07:59N 36°48' W 076°17'0 0.0
2017-Dec-10 07:29N 36°48' W 076°17'0 0.0
2017-Dec-10 06:59N 36°48' W 076°17'0 0.0
2017-Dec-10 06:29N 36°48' W 076°17'0 0.0
2017-Dec-10 05:59N 36°48' W 076°17'0 0.0
2017-Dec-10 05:29N 36°48' W 076°17'0 0.0
2017-Dec-10 04:59N 36°48' W 076°17'0 0.0
2017-Dec-10 04:29N 36°48' W 076°17'0 0.0
2017-Dec-10 03:59N 36°48' W 076°17'0 0.0
2017-Dec-10 03:29N 36°48' W 076°17'0 0.0
2017-Dec-10 02:59N 36°48' W 076°17'0 0.0
2017-Dec-10 02:29N 36°48' W 076°17'0 0.0
2017-Dec-10 01:59N 36°48' W 076°17'0 0.0
2017-Dec-10 01:29N 36°48' W 076°17'0 0.0
2017-Dec-10 00:59N 36°48' W 076°17'0 0.0
2017-Dec-10 00:29N 36°48' W 076°17'0 0.0
2017-Dec-09 23:59N 36°48' W 076°17'0 0.0
2017-Dec-09 23:29N 36°48' W 076°17'0 0.0
2017-Dec-09 22:59N 36°48' W 076°17'0 0.0
2017-Dec-09 22:29N 36°48' W 076°17'0 0.0
2017-Dec-09 21:59N 36°48' W 076°17'0 0.0
2017-Dec-09 21:29N 36°48' W 076°17'0 0.0
2017-Dec-09 20:59N 36°48' W 076°17'0 0.0
2017-Dec-09 20:29N 36°48' W 076°17'0 0.0
2017-Dec-09 19:59N 36°48' W 076°17'0 0.0
2017-Dec-09 19:29N 36°48' W 076°17'0 0.0
2017-Dec-09 18:59N 36°48' W 076°17'0 0.0
2017-Dec-09 18:29N 36°48' W 076°17'0 0.0
2017-Dec-09 17:59N 36°48' W 076°17'0 0.0
2017-Dec-09 17:28N 36°48' W 076°17'0 0.0
2017-Dec-09 16:58N 36°48' W 076°17'0 0.0
2017-Dec-09 16:28N 36°48' W 076°17'0 0.0
2017-Dec-09 15:58N 36°48' W 076°17'0 0.0
2017-Dec-09 15:28N 36°48' W 076°17'0 0.0
2017-Dec-09 14:58N 36°48' W 076°17'0 0.0
2017-Dec-09 14:28N 36°48' W 076°17'0 0.0
2017-Dec-09 13:58N 36°48' W 076°17'0 0.0
2017-Dec-09 13:28N 36°48' W 076°17'0 0.0
2017-Dec-09 12:58N 36°48' W 076°17'0 0.0
2017-Dec-09 12:28N 36°48' W 076°17'0 0.0
2017-Dec-09 11:58N 36°48' W 076°17'0 0.0
2017-Dec-09 11:28N 36°48' W 076°17'0 0.0
2017-Dec-09 10:58N 36°48' W 076°17'0 0.0
2017-Dec-09 10:28N 36°48' W 076°17'0 0.0
2017-Dec-09 09:58N 36°48' W 076°17'0 0.0
2017-Dec-09 09:28N 36°48' W 076°17'0 0.0
2017-Dec-09 08:58N 36°48' W 076°17'0 0.0
2017-Dec-09 08:28N 36°48' W 076°17'0 0.0
2017-Dec-09 07:58N 36°48' W 076°17'0 0.0
2017-Dec-09 07:25N 36°48' W 076°17'0 0.0
2017-Dec-09 06:58N 36°48' W 076°17'0 0.0
2017-Dec-09 06:28N 36°48' W 076°17'0 0.0
2017-Dec-09 05:58N 36°48' W 076°17'0 0.0
2017-Dec-09 05:28N 36°48' W 076°17'0 0.0
2017-Dec-09 04:58N 36°48' W 076°17'0 0.0
2017-Dec-09 04:28N 36°48' W 076°17'0 0.0
2017-Dec-09 03:58N 36°48' W 076°17'0 0.0
2017-Dec-09 03:28N 36°48' W 076°17'0 0.0
2017-Dec-09 02:58N 36°48' W 076°17'0 0.0
2017-Dec-09 02:28N 36°48' W 076°17'0 0.0
2017-Dec-09 01:58N 36°48' W 076°17'0 0.0
2017-Dec-09 01:28N 36°48' W 076°17'0 0.0
2017-Dec-09 00:58N 36°48' W 076°17'0 0.0
2017-Dec-09 00:28N 36°48' W 076°17'0 0.0
2017-Dec-08 23:58N 36°48' W 076°17'0 0.0
2017-Dec-08 23:28N 36°48' W 076°17'0 0.0
2017-Dec-08 22:58N 36°48' W 076°17'0 0.0
2017-Dec-08 22:28N 36°48' W 076°17'0 0.0
2017-Dec-08 21:58N 36°48' W 076°17'0 0.0
2017-Dec-08 21:28N 36°48' W 076°17'0 0.0
2017-Dec-08 20:58N 36°48' W 076°17'0 0.0
2017-Dec-08 20:28N 36°48' W 076°17'0 0.0
2017-Dec-08 19:58N 36°48' W 076°17'0 0.0
2017-Dec-08 19:28N 36°48' W 076°17'0 0.0
2017-Dec-08 18:58N 36°48' W 076°17'0 0.0
2017-Dec-08 18:28N 36°48' W 076°17'0 0.0
2017-Dec-08 17:58N 36°48' W 076°17'0 0.0
2017-Dec-08 17:28N 36°48' W 076°17'0 0.0
2017-Dec-08 16:55N 36°48' W 076°17'0 0.0
2017-Dec-08 16:28N 36°48' W 076°17'0 0.0
2017-Dec-08 15:58N 36°48' W 076°17'0 0.0
2017-Dec-08 15:28N 36°48' W 076°17'0 0.0
2017-Dec-08 14:58N 36°48' W 076°17'0 0.0
2017-Dec-08 14:28N 36°48' W 076°17'0 0.0
2017-Dec-08 13:58N 36°48' W 076°17'0 0.0
2017-Dec-08 13:28N 36°48' W 076°17'0 0.0
2017-Dec-08 12:58N 36°48' W 076°17'0 0.0
2017-Dec-08 12:28N 36°48' W 076°17'0 0.0
2017-Dec-08 11:58N 36°48' W 076°17'0 0.0
2017-Dec-08 11:28N 36°48' W 076°17'0 0.0
2017-Dec-08 10:58N 36°48' W 076°17'0 0.0
2017-Dec-08 10:28N 36°48' W 076°17'0 0.0
2017-Dec-08 09:58N 36°48' W 076°17'0 0.0
2017-Dec-08 09:28N 36°48' W 076°17'0 0.0
2017-Dec-08 08:58N 36°48' W 076°17'0 0.0
2017-Dec-08 08:28N 36°48' W 076°17'0 0.0
2017-Dec-08 07:58N 36°48' W 076°17'0 0.0
2017-Dec-08 07:28N 36°48' W 076°17'0 0.0
2017-Dec-08 06:58N 36°48' W 076°17'0 0.0
2017-Dec-08 06:31N 36°48' W 076°17'0 0.0
2017-Dec-08 06:00N 36°48' W 076°17'0 0.0
2017-Dec-08 05:30N 36°48' W 076°17'0 0.0
2017-Dec-08 05:00N 36°48' W 076°17'0 0.0
2017-Dec-08 04:30N 36°48' W 076°17'0 0.0
2017-Dec-08 04:00N 36°48' W 076°17'0 0.0
2017-Dec-08 03:30N 36°48' W 076°17'0 0.0
2017-Dec-08 03:00N 36°48' W 076°17'0 0.0
2017-Dec-08 02:30N 36°48' W 076°17'0 0.0
2017-Dec-08 02:00N 36°48' W 076°17'0 0.0
2017-Dec-08 01:30N 36°48' W 076°17'0 0.0
2017-Dec-08 01:00N 36°48' W 076°17'0 0.0
2017-Dec-08 00:30N 36°48' W 076°17'0 0.0
2017-Dec-08 00:00N 36°48' W 076°17'0 0.0
2017-Dec-07 23:30N 36°48' W 076°17'0 0.0
2017-Dec-07 23:00N 36°48' W 076°17'0 0.0
2017-Dec-07 22:27N 36°48' W 076°17'0 0.0
2017-Dec-07 22:00N 36°48' W 076°17'0 0.0
2017-Dec-07 21:30N 36°48' W 076°17'0 0.0
2017-Dec-07 21:00N 36°48' W 076°17'0 0.0
2017-Dec-07 20:30N 36°48' W 076°17'0 0.0
2017-Dec-07 20:00N 36°48' W 076°17'0 0.0
2017-Dec-07 19:30N 36°48' W 076°17'0 0.0
2017-Dec-07 19:00N 36°48' W 076°17'0 0.0
2017-Dec-07 18:30N 36°48' W 076°17'0 0.0
2017-Dec-07 18:00N 36°48' W 076°17'0 0.0
2017-Dec-07 17:30N 36°48' W 076°17'0 0.0
2017-Dec-07 17:00N 36°48' W 076°17'0 0.0
2017-Dec-07 16:30N 36°48' W 076°17'0 0.0
2017-Dec-07 16:00N 36°48' W 076°17'0 0.0
2017-Dec-07 15:30N 36°48' W 076°17'0 0.0
2017-Dec-07 15:00N 36°48' W 076°17'0 0.0
2017-Dec-07 14:30N 36°48' W 076°17'0 0.0
2017-Dec-07 14:00N 36°48' W 076°17'0 0.0
2017-Dec-07 13:30N 36°48' W 076°17'0 0.0
2017-Dec-07 13:00N 36°48' W 076°17'0 0.0
2017-Dec-07 12:30N 36°48' W 076°17'0 0.0
2017-Dec-07 12:00N 36°48' W 076°17'0 0.0
2017-Dec-07 11:30N 36°48' W 076°17'0 0.0
2017-Dec-07 11:00N 36°48' W 076°17'0 0.0
2017-Dec-07 10:30N 36°48' W 076°17'0 0.0
2017-Dec-07 10:00N 36°48' W 076°17'0 0.0
2017-Dec-07 09:30N 36°48' W 076°17'0 0.0
2017-Dec-07 09:00N 36°48' W 076°17'0 0.0
2017-Dec-07 08:30N 36°48' W 076°17'0 0.0
2017-Dec-07 08:00N 36°48' W 076°17'0 0.0
2017-Dec-07 07:30N 36°48' W 076°17'0 0.0
2017-Dec-07 07:00N 36°48' W 076°17'0 0.0
2017-Dec-07 06:30N 36°48' W 076°17'0 0.0
2017-Dec-07 06:00N 36°48' W 076°17'0 0.0
2017-Dec-07 05:30N 36°48' W 076°17'0 0.0
2017-Dec-07 05:00N 36°48' W 076°17'0 0.0
2017-Dec-07 04:30N 36°48' W 076°17'0 0.0
2017-Dec-07 04:00N 36°48' W 076°17'0 0.0
2017-Dec-07 03:30N 36°48' W 076°17'0 0.0
2017-Dec-07 03:00N 36°48' W 076°17'0 0.0
2017-Dec-07 02:30N 36°48' W 076°17'0 0.0
2017-Dec-07 02:00N 36°48' W 076°17'0 0.0
2017-Dec-07 01:30N 36°48' W 076°17'0 0.0
2017-Dec-07 01:00N 36°48' W 076°17'0 0.0
2017-Dec-07 00:30N 36°48' W 076°17'0 0.0
2017-Dec-07 00:00N 36°48' W 076°17'0 0.0
2017-Dec-06 23:30N 36°48' W 076°17'0 0.0
2017-Dec-06 23:00N 36°48' W 076°17'0 0.0
2017-Dec-06 22:30N 36°48' W 076°17'0 0.0
2017-Dec-06 22:00N 36°48' W 076°17'0 0.0
2017-Dec-06 21:30N 36°48' W 076°17'0 0.0
2017-Dec-06 21:00N 36°48' W 076°17'  
Track history (hours):
 
Tides and Currents Weather Stations Pressure Air Temp Water Temp Dewpoint Dewpoint Depression Visibility Wind Speed Wind Dir Waves Ship Positions

Ocean Eagle

Last reported at 2017-Dec-11 02:16 UTC. Time now 2017-Dec-17 00:50 UTC.
Position N 36°49' W 075°47'.

Length 225 m; draft 12 m.

Type: Cargo ship. MMSI: 538004221.

Date/timePositionNaut miles runAvg speedWind from/ knotsBaromVisibWave heightAir tempDewpointWater temp
2017-Dec-11 02:16N 36°49' W 075°47'4 9.7
2017-Dec-11 01:54N 36°51' W 075°50'4 9.4
2017-Dec-11 01:30N 36°53' W 075°54'5 9.4
2017-Dec-11 01:00N 36°56' W 075°59'510.4
2017-Dec-11 00:30N 36°58' W 076°05'711.6
2017-Dec-10 23:56N 36°60' W 076°13'511.4
2017-Dec-10 23:30N 36°59' W 076°19'6 9.5
2017-Dec-10 22:53N 36°54' W 076°20'3 7.4
2017-Dec-10 22:31N 36°51' W 076°18'2 4.4
2017-Dec-10 22:01N 36°49' W 076°17'1 2.0
2017-Dec-10 21:29N 36°48' W 076°17'0 0.0
2017-Dec-10 20:59N 36°48' W 076°17'0 0.0
2017-Dec-10 20:29N 36°48' W 076°17'0 0.0
2017-Dec-10 19:59N 36°48' W 076°17'0 0.0
2017-Dec-10 19:29N 36°48' W 076°17'0 0.0
2017-Dec-10 18:59N 36°48' W 076°17'0 0.0
2017-Dec-10 18:29N 36°48' W 076°17'0 0.0
2017-Dec-10 17:59N 36°48' W 076°17'0 0.0
2017-Dec-10 17:29N 36°48' W 076°17'0 0.0
2017-Dec-10 16:59N 36°48' W 076°17'0 0.0
2017-Dec-10 16:29N 36°48' W 076°17'0 0.0
2017-Dec-10 15:59N 36°48' W 076°17'0 0.0
2017-Dec-10 15:29N 36°48' W 076°17'0 0.0
2017-Dec-10 14:59N 36°48' W 076°17'0 0.0
2017-Dec-10 14:29N 36°48' W 076°17'0 0.0
2017-Dec-10 13:59N 36°48' W 076°17'0 0.0
2017-Dec-10 13:29N 36°48' W 076°17'0 0.0
2017-Dec-10 12:59N 36°48' W 076°17'0 0.0
2017-Dec-10 12:29N 36°48' W 076°17'0 0.0
2017-Dec-10 11:59N 36°48' W 076°17'0 0.0
2017-Dec-10 11:29N 36°48' W 076°17'0 0.0
2017-Dec-10 10:59N 36°48' W 076°17'0 0.0
2017-Dec-10 10:29N 36°48' W 076°17'0 0.0
2017-Dec-10 09:59N 36°48' W 076°17'0 0.0
2017-Dec-10 09:29N 36°48' W 076°17'0 0.0
2017-Dec-10 08:59N 36°48' W 076°17'0 0.0
2017-Dec-10 08:29N 36°48' W 076°17'0 0.0
2017-Dec-10 07:59N 36°48' W 076°17'0 0.0
2017-Dec-10 07:29N 36°48' W 076°17'0 0.0
2017-Dec-10 06:59N 36°48' W 076°17'0 0.0
2017-Dec-10 06:29N 36°48' W 076°17'0 0.0
2017-Dec-10 05:59N 36°48' W 076°17'0 0.0
2017-Dec-10 05:29N 36°48' W 076°17'0 0.0
2017-Dec-10 04:59N 36°48' W 076°17'0 0.0
2017-Dec-10 04:29N 36°48' W 076°17'0 0.0
2017-Dec-10 03:59N 36°48' W 076°17'0 0.0
2017-Dec-10 03:29N 36°48' W 076°17'0 0.0
2017-Dec-10 02:59N 36°48' W 076°17'0 0.0
2017-Dec-10 02:29N 36°48' W 076°17'0 0.0
2017-Dec-10 01:59N 36°48' W 076°17'0 0.0
2017-Dec-10 01:29N 36°48' W 076°17'0 0.0
2017-Dec-10 00:59N 36°48' W 076°17'0 0.0
2017-Dec-10 00:29N 36°48' W 076°17'0 0.0
2017-Dec-09 23:59N 36°48' W 076°17'0 0.0
2017-Dec-09 23:29N 36°48' W 076°17'0 0.0
2017-Dec-09 22:59N 36°48' W 076°17'0 0.0
2017-Dec-09 22:29N 36°48' W 076°17'0 0.0
2017-Dec-09 21:59N 36°48' W 076°17'0 0.0
2017-Dec-09 21:29N 36°48' W 076°17'0 0.0
2017-Dec-09 20:59N 36°48' W 076°17'0 0.0
2017-Dec-09 20:29N 36°48' W 076°17'0 0.0
2017-Dec-09 19:59N 36°48' W 076°17'0 0.0
2017-Dec-09 19:29N 36°48' W 076°17'0 0.0
2017-Dec-09 18:59N 36°48' W 076°17'0 0.0
2017-Dec-09 18:29N 36°48' W 076°17'0 0.0
2017-Dec-09 17:59N 36°48' W 076°17'0 0.0
2017-Dec-09 17:28N 36°48' W 076°17'0 0.0
2017-Dec-09 16:58N 36°48' W 076°17'0 0.0
2017-Dec-09 16:28N 36°48' W 076°17'0 0.0
2017-Dec-09 15:58N 36°48' W 076°17'0 0.0
2017-Dec-09 15:28N 36°48' W 076°17'0 0.0
2017-Dec-09 14:58N 36°48' W 076°17'0 0.0
2017-Dec-09 14:28N 36°48' W 076°17'0 0.0
2017-Dec-09 13:58N 36°48' W 076°17'0 0.0
2017-Dec-09 13:28N 36°48' W 076°17'0 0.0
2017-Dec-09 12:58N 36°48' W 076°17'0 0.0
2017-Dec-09 12:28N 36°48' W 076°17'0 0.0
2017-Dec-09 11:58N 36°48' W 076°17'0 0.0
2017-Dec-09 11:28N 36°48' W 076°17'0 0.0
2017-Dec-09 10:58N 36°48' W 076°17'0 0.0
2017-Dec-09 10:28N 36°48' W 076°17'0 0.0
2017-Dec-09 09:58N 36°48' W 076°17'0 0.0
2017-Dec-09 09:28N 36°48' W 076°17'0 0.0
2017-Dec-09 08:58N 36°48' W 076°17'0 0.0
2017-Dec-09 08:28N 36°48' W 076°17'0 0.0
2017-Dec-09 07:58N 36°48' W 076°17'0 0.0
2017-Dec-09 07:25N 36°48' W 076°17'0 0.0
2017-Dec-09 06:58N 36°48' W 076°17'0 0.0
2017-Dec-09 06:28N 36°48' W 076°17'0 0.0
2017-Dec-09 05:58N 36°48' W 076°17'0 0.0
2017-Dec-09 05:28N 36°48' W 076°17'0 0.0
2017-Dec-09 04:58N 36°48' W 076°17'0 0.0
2017-Dec-09 04:28N 36°48' W 076°17'0 0.0
2017-Dec-09 03:58N 36°48' W 076°17'0 0.0
2017-Dec-09 03:28N 36°48' W 076°17'0 0.0
2017-Dec-09 02:58N 36°48' W 076°17'0 0.0
2017-Dec-09 02:28N 36°48' W 076°17'0 0.0
2017-Dec-09 01:58N 36°48' W 076°17'0 0.0
2017-Dec-09 01:28N 36°48' W 076°17'0 0.0
2017-Dec-09 00:58N 36°48' W 076°17'0 0.0
2017-Dec-09 00:28N 36°48' W 076°17'0 0.0
2017-Dec-08 23:58N 36°48' W 076°17'0 0.0
2017-Dec-08 23:28N 36°48' W 076°17'0 0.0
2017-Dec-08 22:58N 36°48' W 076°17'0 0.0
2017-Dec-08 22:28N 36°48' W 076°17'0 0.0
2017-Dec-08 21:58N 36°48' W 076°17'0 0.0
2017-Dec-08 21:28N 36°48' W 076°17'0 0.0
2017-Dec-08 20:58N 36°48' W 076°17'0 0.0
2017-Dec-08 20:28N 36°48' W 076°17'0 0.0
2017-Dec-08 19:58N 36°48' W 076°17'0 0.0
2017-Dec-08 19:28N 36°48' W 076°17'0 0.0
2017-Dec-08 18:58N 36°48' W 076°17'0 0.0
2017-Dec-08 18:28N 36°48' W 076°17'0 0.0
2017-Dec-08 17:58N 36°48' W 076°17'0 0.0
2017-Dec-08 17:28N 36°48' W 076°17'0 0.0
2017-Dec-08 16:55N 36°48' W 076°17'0 0.0
2017-Dec-08 16:28N 36°48' W 076°17'0 0.0
2017-Dec-08 15:58N 36°48' W 076°17'0 0.0
2017-Dec-08 15:28N 36°48' W 076°17'0 0.0
2017-Dec-08 14:58N 36°48' W 076°17'0 0.0
2017-Dec-08 14:28N 36°48' W 076°17'0 0.0
2017-Dec-08 13:58N 36°48' W 076°17'0 0.0
2017-Dec-08 13:28N 36°48' W 076°17'0 0.0
2017-Dec-08 12:58N 36°48' W 076°17'0 0.0
2017-Dec-08 12:28N 36°48' W 076°17'0 0.0
2017-Dec-08 11:58N 36°48' W 076°17'0 0.0
2017-Dec-08 11:28N 36°48' W 076°17'0 0.0
2017-Dec-08 10:58N 36°48' W 076°17'0 0.0
2017-Dec-08 10:28N 36°48' W 076°17'0 0.0
2017-Dec-08 09:58N 36°48' W 076°17'0 0.0
2017-Dec-08 09:28N 36°48' W 076°17'0 0.0
2017-Dec-08 08:58N 36°48' W 076°17'0 0.0
2017-Dec-08 08:28N 36°48' W 076°17'0 0.0
2017-Dec-08 07:58N 36°48' W 076°17'0 0.0
2017-Dec-08 07:28N 36°48' W 076°17'0 0.0
2017-Dec-08 06:58N 36°48' W 076°17'0 0.0
2017-Dec-08 06:31N 36°48' W 076°17'0 0.0
2017-Dec-08 06:00N 36°48' W 076°17'0 0.0
2017-Dec-08 05:30N 36°48' W 076°17'0 0.0
2017-Dec-08 05:00N 36°48' W 076°17'0 0.0
2017-Dec-08 04:30N 36°48' W 076°17'0 0.0
2017-Dec-08 04:00N 36°48' W 076°17'0 0.0
2017-Dec-08 03:30N 36°48' W 076°17'0 0.0
2017-Dec-08 03:00N 36°48' W 076°17'0 0.0
2017-Dec-08 02:30N 36°48' W 076°17'0 0.0
2017-Dec-08 02:00N 36°48' W 076°17'0 0.0
2017-Dec-08 01:30N 36°48' W 076°17'0 0.0
2017-Dec-08 01:00N 36°48' W 076°17'0 0.0
2017-Dec-08 00:30N 36°48' W 076°17'0 0.0
2017-Dec-08 00:00N 36°48' W 076°17'0 0.0
2017-Dec-07 23:30N 36°48' W 076°17'0 0.0
2017-Dec-07 23:00N 36°48' W 076°17'0 0.0
2017-Dec-07 22:27N 36°48' W 076°17'0 0.0
2017-Dec-07 22:00N 36°48' W 076°17'0 0.0
2017-Dec-07 21:30N 36°48' W 076°17'0 0.0
2017-Dec-07 21:00N 36°48' W 076°17'0 0.0
2017-Dec-07 20:30N 36°48' W 076°17'0 0.0
2017-Dec-07 20:00N 36°48' W 076°17'0 0.0
2017-Dec-07 19:30N 36°48' W 076°17'0 0.0
2017-Dec-07 19:00N 36°48' W 076°17'0 0.0
2017-Dec-07 18:30N 36°48' W 076°17'0 0.0
2017-Dec-07 18:00N 36°48' W 076°17'0 0.0
2017-Dec-07 17:30N 36°48' W 076°17'0 0.0
2017-Dec-07 17:00N 36°48' W 076°17'0 0.0
2017-Dec-07 16:30N 36°48' W 076°17'0 0.0
2017-Dec-07 16:00N 36°48' W 076°17'0 0.0
2017-Dec-07 15:30N 36°48' W 076°17'0 0.0
2017-Dec-07 15:00N 36°48' W 076°17'0 0.0
2017-Dec-07 14:30N 36°48' W 076°17'0 0.0
2017-Dec-07 14:00N 36°48' W 076°17'0 0.0
2017-Dec-07 13:30N 36°48' W 076°17'0 0.0
2017-Dec-07 13:00N 36°48' W 076°17'0 0.0
2017-Dec-07 12:30N 36°48' W 076°17'0 0.0
2017-Dec-07 12:00N 36°48' W 076°17'0 0.0
2017-Dec-07 11:30N 36°48' W 076°17'0 0.0
2017-Dec-07 11:00N 36°48' W 076°17'0 0.0
2017-Dec-07 10:30N 36°48' W 076°17'0 0.0
2017-Dec-07 10:00N 36°48' W 076°17'0 0.0
2017-Dec-07 09:30N 36°48' W 076°17'0 0.0
2017-Dec-07 09:00N 36°48' W 076°17'0 0.0
2017-Dec-07 08:30N 36°48' W 076°17'0 0.0
2017-Dec-07 08:00N 36°48' W 076°17'0 0.0
2017-Dec-07 07:30N 36°48' W 076°17'0 0.0
2017-Dec-07 07:00N 36°48' W 076°17'0 0.0
2017-Dec-07 06:30N 36°48' W 076°17'0 0.0
2017-Dec-07 06:00N 36°48' W 076°17'0 0.0
2017-Dec-07 05:30N 36°48' W 076°17'0 0.0
2017-Dec-07 05:00N 36°48' W 076°17'0 0.0
2017-Dec-07 04:30N 36°48' W 076°17'0 0.0
2017-Dec-07 04:00N 36°48' W 076°17'0 0.0
2017-Dec-07 03:30N 36°48' W 076°17'0 0.0
2017-Dec-07 03:00N 36°48' W 076°17'0 0.0
2017-Dec-07 02:30N 36°48' W 076°17'0 0.0
2017-Dec-07 02:00N 36°48' W 076°17'0 0.0
2017-Dec-07 01:30N 36°48' W 076°17'0 0.0
2017-Dec-07 01:00N 36°48' W 076°17'0 0.0
2017-Dec-07 00:30N 36°48' W 076°17'0 0.0
2017-Dec-07 00:00N 36°48' W 076°17'0 0.0
2017-Dec-06 23:30N 36°48' W 076°17'0 0.0
2017-Dec-06 23:00N 36°48' W 076°17'0 0.0
2017-Dec-06 22:30N 36°48' W 076°17'0 0.0
2017-Dec-06 22:00N 36°48' W 076°17'0 0.0
2017-Dec-06 21:30N 36°48' W 076°17'0 0.0
2017-Dec-06 21:00N 36°48' W 076°17'  

Dump ship's entire track history